Time;durP1;ratioP1;P1;durP2;ratioP2;P2;SDS_P1;SDS_P2;PMS_P1;PMS_P2;Temp;Humidity;BMP_temperature;BMP_pressure;BME280_temperature;BME280_humidity;BME280_pressure;Samples;Min_cycle;Max_cycle;Signal;HPM_P1;HPM_P2
2024/02/18 00:01:08;;;;;;;81.70;56.67;;;;;;;;;;4997352;28;20445;-79
2024/02/18 00:03:35;;;;;;;76.27;58.63;;;;;;;;;;4996995;28;20424;-78
2024/02/18 00:06:02;;;;;;;78.63;57.00;;;;;;;;;;4996808;28;20872;-78
2024/02/18 00:08:28;;;;;;;78.00;56.30;;;;;;;;;;4996791;28;20491;-79
2024/02/18 00:10:55;;;;;;;80.57;60.80;;;;;;;;;;4996817;28;20521;-79
2024/02/18 00:13:24;;;;;;;71.50;52.87;;;;;;;;;;4996898;28;20460;-78
2024/02/18 00:15:51;;;;;;;83.73;57.67;;;;;;;;;;4997374;28;20853;-79
2024/02/18 00:18:18;;;;;;;68.87;55.23;;;;;;;;;;4996147;28;20527;-79
2024/02/18 00:20:45;;;;;;;68.70;53.50;;;;;;;;;;4996578;28;20450;-79
2024/02/18 00:23:12;;;;;;;83.23;56.13;;;;;;;;;;4996701;28;20941;-79
2024/02/18 00:25:39;;;;;;;82.37;59.77;;;;;;;;;;4996425;28;20459;-79
2024/02/18 00:28:07;;;;;;;82.20;60.10;;;;;;;;;;4995688;28;20852;-79
2024/02/18 00:30:35;;;;;;;84.97;57.17;;;;;;;;;;4995940;28;20488;-79
2024/02/18 00:33:03;;;;;;;71.50;55.80;;;;;;;;;;4996475;28;20458;-79
2024/02/18 00:35:29;;;;;;;79.50;56.27;;;;;;;;;;4996137;28;20504;-79
2024/02/18 00:37:57;;;;;;;79.47;56.50;;;;;;;;;;4994657;28;20458;-79
2024/02/18 00:40:23;;;;;;;74.43;54.20;;;;;;;;;;4995656;28;20433;-79
2024/02/18 00:42:50;;;;;;;67.17;53.23;;;;;;;;;;4995473;28;20490;-79
2024/02/18 00:45:17;;;;;;;75.30;54.13;;;;;;;;;;4995139;28;20508;-79
2024/02/18 00:47:46;;;;;;;85.30;56.47;;;;;;;;;;4995051;28;20528;-79
2024/02/18 00:50:13;;;;;;;70.40;52.97;;;;;;;;;;4995054;28;20469;-78
2024/02/18 00:52:40;;;;;;;69.50;52.90;;;;;;;;;;4994193;28;20544;-79
2024/02/18 00:55:08;;;;;;;68.53;53.53;;;;;;;;;;4994162;28;20500;-79
2024/02/18 00:57:35;;;;;;;77.23;55.93;;;;;;;;;;4993447;28;20449;-78
2024/02/18 01:00:03;;;;;;;71.60;55.40;;;;;;;;;;4993199;28;21007;-78
2024/02/18 01:02:30;;;;;;;73.07;52.17;;;;;;;;;;4994359;28;20449;-79
2024/02/18 01:04:59;;;;;;;73.83;55.30;;;;;;;;;;4994456;28;20454;-78
2024/02/18 01:07:26;;;;;;;72.67;56.07;;;;;;;;;;4993745;28;20449;-79
2024/02/18 01:09:53;;;;;;;77.83;54.20;;;;;;;;;;4994876;28;20461;-79
2024/02/18 01:12:20;;;;;;;76.30;56.47;;;;;;;;;;4994604;28;20493;-78
2024/02/18 01:14:47;;;;;;;80.63;55.27;;;;;;;;;;4994605;28;20502;-78
2024/02/18 01:17:14;;;;;;;74.43;56.00;;;;;;;;;;4994725;28;20520;-79
2024/02/18 01:19:41;;;;;;;69.17;52.73;;;;;;;;;;4994343;28;20465;-79
2024/02/18 01:22:09;;;;;;;71.53;53.17;;;;;;;;;;4994530;28;20468;-78
2024/02/18 01:24:36;;;;;;;65.17;53.57;;;;;;;;;;4994981;28;20454;-79
2024/02/18 01:27:03;;;;;;;73.83;54.07;;;;;;;;;;4993393;28;20465;-79
2024/02/18 01:29:30;;;;;;;78.80;57.13;;;;;;;;;;4994605;28;20499;-78
2024/02/18 01:31:57;;;;;;;72.63;55.70;;;;;;;;;;4994320;28;20493;-79
2024/02/18 01:34:24;;;;;;;70.13;55.50;;;;;;;;;;4984337;28;20513;-78
2024/02/18 01:36:51;;;;;;;68.80;53.23;;;;;;;;;;4974652;28;20574;-79
2024/02/18 01:39:20;;;;;;;72.53;57.10;;;;;;;;;;4974592;28;20466;-78
2024/02/18 01:41:47;;;;;;;68.23;51.17;;;;;;;;;;4974771;28;20854;-79
2024/02/18 01:44:14;;;;;;;69.17;51.73;;;;;;;;;;4974931;28;20454;-79
2024/02/18 01:46:42;;;;;;;67.53;51.23;;;;;;;;;;4975436;28;20997;-79
2024/02/18 01:49:09;;;;;;;68.30;53.00;;;;;;;;;;4973982;28;20474;-80
2024/02/18 01:51:37;;;;;;;63.83;52.93;;;;;;;;;;4973315;28;20499;-78
2024/02/18 01:54:05;;;;;;;57.57;48.87;;;;;;;;;;4974402;28;20514;-80
2024/02/18 01:56:34;;;;;;;56.93;49.40;;;;;;;;;;4973894;28;20490;-78
2024/02/18 01:59:01;;;;;;;63.33;50.67;;;;;;;;;;4973530;28;20489;-78
2024/02/18 02:01:28;;;;;;;69.80;50.53;;;;;;;;;;4973724;28;20509;-79
2024/02/18 02:03:57;;;;;;;61.47;50.90;;;;;;;;;;4974023;28;20513;-79
2024/02/18 02:06:24;;;;;;;61.50;48.83;;;;;;;;;;4974081;28;21135;-79
2024/02/18 02:08:52;;;;;;;64.40;53.67;;;;;;;;;;4974207;28;20537;-78
2024/02/18 02:11:19;;;;;;;67.97;52.83;;;;;;;;;;4976433;28;20592;-79
2024/02/18 02:13:48;;;;;;;62.10;50.07;;;;;;;;;;4987670;28;20461;-78
2024/02/18 02:16:15;;;;;;;63.90;49.40;;;;;;;;;;4996636;28;20524;-78
2024/02/18 02:18:42;;;;;;;63.53;50.80;;;;;;;;;;4995986;28;20461;-78
2024/02/18 02:21:09;;;;;;;60.27;49.50;;;;;;;;;;4996845;28;20445;-79
2024/02/18 02:23:36;;;;;;;57.60;48.53;;;;;;;;;;4996864;28;20427;-79
2024/02/18 02:26:03;;;;;;;54.83;47.60;;;;;;;;;;4996212;28;20476;-79
2024/02/18 02:28:31;;;;;;;64.40;49.13;;;;;;;;;;4989454;28;20477;-78
2024/02/18 02:31:00;;;;;;;61.70;47.67;;;;;;;;;;4997038;28;20468;-79
2024/02/18 02:33:27;;;;;;;57.90;49.00;;;;;;;;;;4996025;28;20460;-79
2024/02/18 02:35:54;;;;;;;61.13;50.30;;;;;;;;;;4996734;28;20446;-79
2024/02/18 02:38:21;;;;;;;62.30;48.97;;;;;;;;;;4996000;28;20468;-79
2024/02/18 02:40:48;;;;;;;59.03;49.03;;;;;;;;;;4996368;28;20450;-79
2024/02/18 02:43:16;;;;;;;57.57;47.30;;;;;;;;;;4995857;28;20508;-79
2024/02/18 02:48:48;;;;;;;55.73;47.70;;;;;;;;;;4994315;28;20411;-78
2024/02/18 02:51:15;;;;;;;58.40;48.57;;;;;;;;;;4995287;28;21083;-79
2024/02/18 02:53:42;;;;;;;57.60;49.90;;;;;;;;;;4995238;28;20512;-79
2024/02/18 02:56:09;;;;;;;62.67;48.27;;;;;;;;;;4995155;28;20846;-79
2024/02/18 02:58:36;;;;;;;59.37;49.37;;;;;;;;;;4995415;28;20552;-79
2024/02/18 03:01:03;;;;;;;56.20;49.30;;;;;;;;;;4996558;28;20511;-79
2024/02/18 03:03:30;;;;;;;58.70;46.27;;;;;;;;;;4995141;28;20441;-78
2024/02/18 03:05:58;;;;;;;58.83;46.07;;;;;;;;;;4994280;28;20475;-78
2024/02/18 03:08:25;;;;;;;60.83;48.73;;;;;;;;;;4995269;28;20813;-79
2024/02/18 03:10:52;;;;;;;52.63;45.97;;;;;;;;;;4995936;28;20809;-78
2024/02/18 03:13:19;;;;;;;60.67;46.90;;;;;;;;;;4995583;28;20493;-78
2024/02/18 03:15:47;;;;;;;59.00;47.97;;;;;;;;;;4995764;28;20446;-79
2024/02/18 03:18:14;;;;;;;56.40;47.20;;;;;;;;;;4995035;28;20477;-79
2024/02/18 03:20:42;;;;;;;59.70;47.90;;;;;;;;;;4996101;28;20464;-78
2024/02/18 03:23:10;;;;;;;51.47;45.60;;;;;;;;;;4994980;28;20472;-79
2024/02/18 03:25:38;;;;;;;56.97;46.30;;;;;;;;;;4995065;28;20453;-79
2024/02/18 03:28:05;;;;;;;50.07;44.63;;;;;;;;;;4994229;28;20837;-79
2024/02/18 03:30:32;;;;;;;53.37;46.10;;;;;;;;;;4995151;28;20479;-79
2024/02/18 03:32:59;;;;;;;57.97;46.90;;;;;;;;;;4995332;28;21041;-79
2024/02/18 03:35:28;;;;;;;52.20;46.03;;;;;;;;;;4994500;28;20849;-78
2024/02/18 03:37:55;;;;;;;58.43;45.80;;;;;;;;;;4993402;28;20477;-78
2024/02/18 03:40:24;;;;;;;50.20;44.80;;;;;;;;;;4993692;28;20432;-79
2024/02/18 03:42:51;;;;;;;52.97;45.90;;;;;;;;;;4994408;28;20454;-78
2024/02/18 03:45:18;;;;;;;52.17;46.00;;;;;;;;;;4993830;28;20445;-79
2024/02/18 03:47:45;;;;;;;51.33;44.93;;;;;;;;;;4994785;28;20473;-78
2024/02/18 03:50:14;;;;;;;55.70;44.70;;;;;;;;;;4995046;28;20488;-79
2024/02/18 03:52:43;;;;;;;53.07;44.47;;;;;;;;;;4995756;28;20478;-79
2024/02/18 03:55:10;;;;;;;51.73;42.87;;;;;;;;;;4993383;28;20934;-79
2024/02/18 03:57:38;;;;;;;50.60;42.97;;;;;;;;;;4974871;28;20585;-79
2024/02/18 04:00:07;;;;;;;48.83;42.03;;;;;;;;;;4975480;28;20460;-78
2024/02/18 04:02:35;;;;;;;47.43;42.10;;;;;;;;;;4988546;28;20431;-78
2024/02/18 04:05:03;;;;;;;54.17;43.20;;;;;;;;;;4994487;28;21189;-78
2024/02/18 04:07:30;;;;;;;49.10;43.57;;;;;;;;;;4990866;28;20465;-78
2024/02/18 04:09:57;;;;;;;53.90;45.57;;;;;;;;;;4978522;28;20454;-78
2024/02/18 04:12:24;;;;;;;49.77;43.20;;;;;;;;;;4978269;28;20496;-79
2024/02/18 04:14:53;;;;;;;51.60;44.37;;;;;;;;;;4993720;28;20515;-78
2024/02/18 04:17:20;;;;;;;52.13;43.20;;;;;;;;;;4993237;28;21025;-79
2024/02/18 04:19:47;;;;;;;48.67;43.57;;;;;;;;;;4993523;28;21255;-78
2024/02/18 04:22:14;;;;;;;55.80;44.17;;;;;;;;;;4993754;28;21044;-79
2024/02/18 04:24:41;;;;;;;45.80;40.90;;;;;;;;;;4993314;28;20556;-78
2024/02/18 04:27:09;;;;;;;49.53;41.43;;;;;;;;;;4993210;28;20449;-78
2024/02/18 04:29:36;;;;;;;49.87;42.00;;;;;;;;;;4993526;28;20444;-79
2024/02/18 04:32:05;;;;;;;45.07;40.37;;;;;;;;;;4993080;28;20543;-79
2024/02/18 04:34:32;;;;;;;45.80;40.90;;;;;;;;;;4992480;28;20971;-79
2024/02/18 04:36:59;;;;;;;51.20;45.73;;;;;;;;;;4992418;28;20930;-78
2024/02/18 04:39:26;;;;;;;44.37;39.80;;;;;;;;;;4992619;28;20536;-78
2024/02/18 04:41:53;;;;;;;47.40;41.40;;;;;;;;;;4992539;28;20457;-79
2024/02/18 04:44:20;;;;;;;46.23;41.57;;;;;;;;;;4992764;28;20457;-79
2024/02/18 04:46:47;;;;;;;45.80;40.03;;;;;;;;;;4992099;28;20449;-78
2024/02/18 04:49:15;;;;;;;48.63;42.07;;;;;;;;;;4992667;28;20473;-78
2024/02/18 04:51:42;;;;;;;45.40;39.67;;;;;;;;;;4992843;28;20507;-79
2024/02/18 04:54:09;;;;;;;49.20;42.23;;;;;;;;;;4992731;28;20504;-79
2024/02/18 04:56:36;;;;;;;48.10;41.53;;;;;;;;;;4992019;28;20449;-78
2024/02/18 04:59:03;;;;;;;44.90;39.50;;;;;;;;;;4992758;28;20456;-79
2024/02/18 05:01:30;;;;;;;46.03;41.53;;;;;;;;;;4993064;28;20449;-79
2024/02/18 05:03:57;;;;;;;44.53;39.77;;;;;;;;;;4992863;28;20449;-78
2024/02/18 05:06:26;;;;;;;43.10;38.53;;;;;;;;;;4980135;28;20487;-78
2024/02/18 05:08:53;;;;;;;43.70;37.77;;;;;;;;;;4973268;28;20470;-79
2024/02/18 05:11:19;;;;;;;42.77;38.10;;;;;;;;;;4987778;28;20453;-78
2024/02/18 05:13:46;;;;;;;44.87;39.57;;;;;;;;;;4992469;28;20997;-79
2024/02/18 05:16:13;;;;;;;48.27;39.63;;;;;;;;;;4991820;28;20424;-79
2024/02/18 05:18:40;;;;;;;43.20;38.60;;;;;;;;;;4992558;28;20440;-78
2024/02/18 05:21:08;;;;;;;44.90;40.10;;;;;;;;;;4992858;28;20454;-78
2024/02/18 05:23:39;;;;;;;42.90;37.77;;;;;;;;;;4993103;28;20419;-79
2024/02/18 05:26:06;;;;;;;41.80;37.87;;;;;;;;;;4992264;28;20837;-78
2024/02/18 05:28:33;;;;;;;41.53;37.27;;;;;;;;;;4992522;28;20461;-79
2024/02/18 05:31:00;;;;;;;44.03;39.10;;;;;;;;;;4992918;28;20428;-79
2024/02/18 05:33:27;;;;;;;42.33;38.10;;;;;;;;;;4992682;28;20493;-78
2024/02/18 05:35:54;;;;;;;43.27;38.90;;;;;;;;;;4992836;28;20445;-78
2024/02/18 05:38:21;;;;;;;44.33;39.53;;;;;;;;;;4992462;28;20535;-80
2024/02/18 05:40:50;;;;;;;40.53;36.43;;;;;;;;;;4992783;28;20537;-77
2024/02/18 05:43:17;;;;;;;39.37;35.37;;;;;;;;;;4992407;28;21020;-78
2024/02/18 05:45:44;;;;;;;42.77;38.27;;;;;;;;;;4993749;28;20544;-79
2024/02/18 05:48:11;;;;;;;41.27;36.93;;;;;;;;;;4995283;28;21060;-78
2024/02/18 05:50:38;;;;;;;42.00;37.87;;;;;;;;;;4995851;28;20449;-79
2024/02/18 05:53:05;;;;;;;48.73;38.10;;;;;;;;;;4995892;28;20592;-78
2024/02/18 05:55:32;;;;;;;41.70;37.20;;;;;;;;;;4988566;28;20457;-79
2024/02/18 05:58:00;;;;;;;41.37;36.90;;;;;;;;;;4975945;28;20474;-78
2024/02/18 06:00:27;;;;;;;42.17;38.13;;;;;;;;;;4975797;28;20462;-79
2024/02/18 06:02:54;;;;;;;42.37;38.13;;;;;;;;;;4976445;28;20865;-78
2024/02/18 06:05:21;;;;;;;39.20;35.40;;;;;;;;;;4976621;28;20869;-79
2024/02/18 06:07:48;;;;;;;40.30;36.17;;;;;;;;;;4975820;28;20564;-79
2024/02/18 06:10:15;;;;;;;39.60;35.50;;;;;;;;;;4976480;28;20450;-78
2024/02/18 06:12:42;;;;;;;41.83;37.53;;;;;;;;;;4976528;28;20482;-78
2024/02/18 06:15:12;;;;;;;40.20;36.40;;;;;;;;;;4976795;28;20454;-77
2024/02/18 06:17:39;;;;;;;40.20;36.20;;;;;;;;;;4975996;28;20478;-78
2024/02/18 06:20:08;;;;;;;39.67;35.93;;;;;;;;;;4975894;28;20454;-79
2024/02/18 06:22:35;;;;;;;38.90;35.13;;;;;;;;;;4979191;28;20926;-79
2024/02/18 06:25:02;;;;;;;39.70;35.63;;;;;;;;;;4995402;28;21000;-79
2024/02/18 06:27:29;;;;;;;37.43;33.87;;;;;;;;;;4994481;28;21004;-78
2024/02/18 06:29:56;;;;;;;38.43;34.93;;;;;;;;;;4995469;28;20520;-79
2024/02/18 06:32:24;;;;;;;38.60;34.70;;;;;;;;;;4985557;28;20466;-78
2024/02/18 06:34:51;;;;;;;38.40;34.60;;;;;;;;;;4975356;28;20450;-79
2024/02/18 06:37:18;;;;;;;40.00;36.23;;;;;;;;;;4974733;28;20454;-79
2024/02/18 06:39:45;;;;;;;36.47;33.27;;;;;;;;;;4975480;28;20800;-79
2024/02/18 06:42:12;;;;;;;38.20;34.63;;;;;;;;;;4979987;28;20535;-79
2024/02/18 06:44:39;;;;;;;38.50;34.83;;;;;;;;;;4980941;28;20462;-79
2024/02/18 06:47:06;;;;;;;35.73;32.40;;;;;;;;;;4974714;28;20505;-78
2024/02/18 06:49:34;;;;;;;38.93;35.17;;;;;;;;;;4974800;28;20474;-78
2024/02/18 06:52:01;;;;;;;35.57;32.30;;;;;;;;;;4975346;28;20465;-79
2024/02/18 06:54:28;;;;;;;36.67;32.97;;;;;;;;;;4975012;28;20494;-78
2024/02/18 06:56:55;;;;;;;36.80;33.20;;;;;;;;;;4973177;28;20450;-78
2024/02/18 06:59:22;;;;;;;39.90;35.93;;;;;;;;;;4981752;28;20477;-78
2024/02/18 07:01:49;;;;;;;36.60;33.03;;;;;;;;;;4998788;28;20453;-78
2024/02/18 07:04:16;;;;;;;36.13;32.50;;;;;;;;;;4994830;28;20619;-79
2024/02/18 07:06:45;;;;;;;35.40;32.00;;;;;;;;;;4993689;28;20453;-79
2024/02/18 07:09:12;;;;;;;38.13;34.40;;;;;;;;;;4994732;28;20473;-78
2024/02/18 07:11:39;;;;;;;37.40;33.20;;;;;;;;;;4993119;28;20445;-79
2024/02/18 07:14:06;;;;;;;35.30;32.00;;;;;;;;;;4992597;28;20486;-78
2024/02/18 07:16:33;;;;;;;35.53;32.40;;;;;;;;;;4992091;28;20457;-78
2024/02/18 07:19:00;;;;;;;37.57;34.17;;;;;;;;;;4993062;28;20470;-78
2024/02/18 07:21:27;;;;;;;36.90;33.70;;;;;;;;;;4993029;28;20445;-78
2024/02/18 07:23:55;;;;;;;38.00;34.50;;;;;;;;;;4992547;28;20441;-78
2024/02/18 07:26:22;;;;;;;34.57;31.37;;;;;;;;;;4992025;28;20445;-78
2024/02/18 07:28:49;;;;;;;32.67;29.80;;;;;;;;;;4992496;28;21147;-78
2024/02/18 07:31:17;;;;;;;34.07;30.97;;;;;;;;;;4992781;28;20450;-78
2024/02/18 07:33:44;;;;;;;33.27;29.97;;;;;;;;;;4992403;28;20485;-77
2024/02/18 07:36:11;;;;;;;31.13;28.50;;;;;;;;;;4991628;28;20507;-77
2024/02/18 07:38:38;;;;;;;33.27;30.03;;;;;;;;;;4992258;28;21044;-78
2024/02/18 07:41:07;;;;;;;32.73;29.73;;;;;;;;;;4981663;28;20453;-77
2024/02/18 07:43:34;;;;;;;31.37;28.53;;;;;;;;;;4973161;28;20931;-77
2024/02/18 07:46:01;;;;;;;31.87;28.80;;;;;;;;;;4977543;28;20934;-77
2024/02/18 07:48:27;;;;;;;29.17;26.10;;;;;;;;;;4983511;28;20536;-77
2024/02/18 07:50:54;;;;;;;27.37;24.90;;;;;;;;;;4980944;28;20462;-77
2024/02/18 07:53:21;;;;;;;29.27;26.73;;;;;;;;;;4972397;28;20522;-77
2024/02/18 07:55:49;;;;;;;28.73;26.23;;;;;;;;;;4972607;28;20455;-77
2024/02/18 07:58:17;;;;;;;28.43;25.93;;;;;;;;;;4971783;28;20505;-77
2024/02/18 08:00:44;;;;;;;29.03;26.27;;;;;;;;;;4972654;28;20500;-77
2024/02/18 08:03:11;;;;;;;27.20;25.10;;;;;;;;;;4972600;28;20497;-77
2024/02/18 08:05:38;;;;;;;27.07;24.63;;;;;;;;;;4972817;28;20501;-78
2024/02/18 08:08:05;;;;;;;25.83;23.43;;;;;;;;;;4971930;28;20466;-77
2024/02/18 08:10:32;;;;;;;25.27;23.23;;;;;;;;;;4972803;28;20505;-77
2024/02/18 08:12:59;;;;;;;24.97;22.47;;;;;;;;;;4972768;28;20568;-77
2024/02/18 08:15:27;;;;;;;24.57;22.70;;;;;;;;;;4980734;28;20457;-77
2024/02/18 08:17:54;;;;;;;25.23;22.93;;;;;;;;;;4975471;28;20481;-78
2024/02/18 08:20:21;;;;;;;24.80;22.90;;;;;;;;;;4972560;28;20450;-76
2024/02/18 08:22:48;;;;;;;23.80;22.30;;;;;;;;;;4972447;28;20454;-77
2024/02/18 08:25:15;;;;;;;24.20;22.50;;;;;;;;;;4972358;28;20455;-77
2024/02/18 08:27:42;;;;;;;24.80;22.53;;;;;;;;;;4971580;28;20525;-76
2024/02/18 08:30:09;;;;;;;24.53;22.17;;;;;;;;;;4972184;28;20859;-77
2024/02/18 08:32:38;;;;;;;23.53;21.67;;;;;;;;;;4972190;28;20509;-77
2024/02/18 08:35:05;;;;;;;23.73;21.70;;;;;;;;;;4972123;28;20494;-77
2024/02/18 08:37:32;;;;;;;24.10;22.30;;;;;;;;;;4971457;28;20521;-77
2024/02/18 08:39:59;;;;;;;22.63;20.73;;;;;;;;;;4972127;28;20513;-77
2024/02/18 08:42:27;;;;;;;23.60;21.83;;;;;;;;;;4972188;28;20541;-77
2024/02/18 08:44:55;;;;;;;22.83;21.17;;;;;;;;;;4972006;28;20811;-76
2024/02/18 08:47:21;;;;;;;22.60;21.10;;;;;;;;;;4971167;28;20553;-76
2024/02/18 08:49:50;;;;;;;24.47;22.50;;;;;;;;;;4972215;28;20458;-77
2024/02/18 08:52:17;;;;;;;23.87;21.97;;;;;;;;;;4972136;28;20462;-77
2024/02/18 08:54:44;;;;;;;21.47;20.07;;;;;;;;;;4972230;28;20477;-78
2024/02/18 08:57:11;;;;;;;23.50;21.80;;;;;;;;;;4971764;28;20520;-77
2024/02/18 08:59:38;;;;;;;24.37;22.43;;;;;;;;;;4971624;28;20478;-79
2024/02/18 09:02:05;;;;;;;23.77;21.90;;;;;;;;;;4972241;28;20454;-77
2024/02/18 09:04:32;;;;;;;20.47;19.20;;;;;;;;;;4978202;28;20453;-80
2024/02/18 09:07:00;;;;;;;20.07;18.73;;;;;;;;;;4976345;28;20482;-83
2024/02/18 09:09:28;;;;;;;23.80;22.13;;;;;;;;;;4977671;28;20474;-82
2024/02/18 09:11:55;;;;;;;23.07;21.23;;;;;;;;;;4977539;28;20743;-81
2024/02/18 09:14:22;;;;;;;23.63;21.93;;;;;;;;;;4976876;28;20489;-80
2024/02/18 09:16:49;;;;;;;22.17;20.87;;;;;;;;;;4973085;28;20462;-75
2024/02/18 09:19:16;;;;;;;23.50;21.90;;;;;;;;;;4971536;28;20509;-76
2024/02/18 09:21:43;;;;;;;22.97;21.13;;;;;;;;;;4974395;28;20955;-82
2024/02/18 09:24:11;;;;;;;23.63;21.93;;;;;;;;;;4980286;28;21014;-80
2024/02/18 09:26:38;;;;;;;24.10;22.30;;;;;;;;;;4981090;28;20450;-81
2024/02/18 09:29:06;;;;;;;22.93;21.53;;;;;;;;;;4981373;28;20470;-83
2024/02/18 09:31:35;;;;;;;24.63;22.63;;;;;;;;;;4981646;28;20509;-84
2024/02/18 09:34:02;;;;;;;23.23;21.50;;;;;;;;;;4993716;28;20896;-80
2024/02/18 09:36:29;;;;;;;24.03;22.33;;;;;;;;;;4999655;28;20483;-85
2024/02/18 09:38:56;;;;;;;23.90;22.30;;;;;;;;;;5001381;28;20504;-85
2024/02/18 09:41:27;;;;;;;23.07;21.37;;;;;;;;;;4981288;28;20458;-85
2024/02/18 09:43:55;;;;;;;22.93;21.40;;;;;;;;;;4983038;28;20446;-83
2024/02/18 09:46:23;;;;;;;23.03;21.63;;;;;;;;;;4998797;28;20934;-84
2024/02/18 09:48:50;;;;;;;23.27;21.70;;;;;;;;;;4992007;28;20571;-84
2024/02/18 09:51:17;;;;;;;21.30;20.00;;;;;;;;;;4978137;28;20430;-74
2024/02/18 09:53:45;;;;;;;22.30;20.70;;;;;;;;;;4991645;28;21059;-75
2024/02/18 09:56:13;;;;;;;22.57;21.00;;;;;;;;;;4985210;28;20458;-82
2024/02/18 09:58:41;;;;;;;23.13;21.40;;;;;;;;;;4996366;28;20898;-83
2024/02/18 10:01:09;;;;;;;23.60;21.80;;;;;;;;;;4985807;28;20450;-83
2024/02/18 10:03:36;;;;;;;23.50;21.97;;;;;;;;;;4981413;28;20481;-83
2024/02/18 10:06:03;;;;;;;23.47;21.50;;;;;;;;;;4973939;28;20504;-76
2024/02/18 10:08:41;;;;;;;24.13;22.50;;;;;;;;;;4977533;28;21025;-75
2024/02/18 10:11:08;;;;;;;23.47;21.50;;;;;;;;;;4988312;28;20437;-75
2024/02/18 10:13:35;;;;;;;25.13;23.60;;;;;;;;;;4974347;28;20462;-76
2024/02/18 10:16:03;;;;;;;24.00;22.10;;;;;;;;;;4980042;28;20528;-75
2024/02/18 10:18:30;;;;;;;25.57;23.60;;;;;;;;;;4993555;28;20460;-75
2024/02/18 10:20:57;;;;;;;24.33;22.57;;;;;;;;;;4993678;28;20453;-76
2024/02/18 10:23:25;;;;;;;25.07;22.80;;;;;;;;;;4975787;28;20552;-75
2024/02/18 10:25:52;;;;;;;25.63;23.63;;;;;;;;;;4973939;28;20461;-75
2024/02/18 10:28:20;;;;;;;24.60;23.00;;;;;;;;;;4983534;28;20482;-82
2024/02/18 10:30:49;;;;;;;25.87;23.77;;;;;;;;;;4995222;28;20512;-83
2024/02/18 10:33:18;;;;;;;26.23;24.10;;;;;;;;;;4999228;28;20489;-82
2024/02/18 10:35:46;;;;;;;26.27;24.50;;;;;;;;;;4998234;28;20548;-82
2024/02/18 10:38:15;;;;;;;25.50;23.80;;;;;;;;;;4982201;28;20531;-79
2024/02/18 10:40:44;;;;;;;25.43;23.20;;;;;;;;;;4994494;28;20460;-78
2024/02/18 10:43:12;;;;;;;29.33;27.00;;;;;;;;;;4994924;28;20495;-80
2024/02/18 10:45:41;;;;;;;25.30;23.50;;;;;;;;;;4997119;28;20477;-81
2024/02/18 10:48:11;;;;;;;22.47;21.20;;;;;;;;;;4999659;28;20877;-80
2024/02/18 10:50:41;;;;;;;25.90;24.23;;;;;;;;;;5000987;28;20495;-81
2024/02/18 10:53:11;;;;;;;25.67;23.77;;;;;;;;;;4996719;28;20818;-82
2024/02/18 10:55:41;;;;;;;24.60;23.00;;;;;;;;;;4996370;28;20995;-80
2024/02/18 10:58:11;;;;;;;23.77;21.97;;;;;;;;;;4994374;28;20961;-80
2024/02/18 11:00:40;;;;;;;24.60;22.90;;;;;;;;;;4996164;28;20466;-79
2024/02/18 11:03:11;;;;;;;24.10;22.57;;;;;;;;;;4996476;28;20504;-81
2024/02/18 11:05:39;;;;;;;21.80;20.33;;;;;;;;;;4995781;28;20437;-75
2024/02/18 11:08:08;;;;;;;23.07;21.30;;;;;;;;;;4976207;28;20474;-75
2024/02/18 11:10:35;;;;;;;21.73;20.53;;;;;;;;;;4990581;28;20453;-74
2024/02/18 11:13:04;;;;;;;22.40;21.17;;;;;;;;;;4991291;28;20965;-75
2024/02/18 11:15:31;;;;;;;23.80;22.40;;;;;;;;;;4982967;28;20489;-73
2024/02/18 11:17:59;;;;;;;23.00;21.40;;;;;;;;;;4977926;28;20478;-74
2024/02/18 11:20:26;;;;;;;26.13;24.43;;;;;;;;;;4989036;28;20468;-74
2024/02/18 11:22:56;;;;;;;23.73;22.43;;;;;;;;;;4985120;28;20550;-74
2024/02/18 11:25:24;;;;;;;26.47;24.50;;;;;;;;;;4989423;28;20869;-74
2024/02/18 11:27:51;;;;;;;26.70;24.90;;;;;;;;;;4984919;28;20616;-73
2024/02/18 11:30:18;;;;;;;26.20;24.40;;;;;;;;;;4990034;28;20511;-73
2024/02/18 11:32:45;;;;;;;24.87;23.27;;;;;;;;;;4983239;28;20437;-73
2024/02/18 11:35:15;;;;;;;25.50;24.00;;;;;;;;;;4991183;28;20882;-73
2024/02/18 11:37:42;;;;;;;25.80;24.20;;;;;;;;;;4991292;28;20461;-74
2024/02/18 11:40:12;;;;;;;26.77;24.87;;;;;;;;;;4992160;28;20523;-73
2024/02/18 11:42:39;;;;;;;26.80;24.73;;;;;;;;;;5002151;28;20461;-74
2024/02/18 11:45:08;;;;;;;26.50;24.80;;;;;;;;;;4991885;28;20496;-74
2024/02/18 11:47:35;;;;;;;27.27;25.57;;;;;;;;;;4990674;28;20465;-73
2024/02/18 11:50:03;;;;;;;25.77;23.87;;;;;;;;;;4991729;28;20511;-73
2024/02/18 11:52:32;;;;;;;24.03;22.40;;;;;;;;;;4985488;28;20551;-73
2024/02/18 11:54:59;;;;;;;23.97;22.53;;;;;;;;;;4991706;28;20467;-74
2024/02/18 11:57:27;;;;;;;25.73;24.27;;;;;;;;;;4987373;28;20476;-74
2024/02/18 11:59:55;;;;;;;26.10;24.40;;;;;;;;;;4971866;28;20553;-73
2024/02/18 12:02:22;;;;;;;26.47;24.57;;;;;;;;;;4972490;28;20548;-73
2024/02/18 12:04:50;;;;;;;26.70;24.80;;;;;;;;;;4973471;28;20490;-76
2024/02/18 12:07:17;;;;;;;26.23;24.43;;;;;;;;;;4978047;28;20507;-74
2024/02/18 12:09:44;;;;;;;25.40;23.90;;;;;;;;;;4971474;28;20447;-74
2024/02/18 12:12:11;;;;;;;28.53;26.77;;;;;;;;;;4972252;28;20460;-73
2024/02/18 12:14:50;;;;;;;25.63;24.23;;;;;;;;;;4971239;28;20525;-77
2024/02/18 12:17:17;;;;;;;25.43;23.67;;;;;;;;;;4978309;28;20481;-78
2024/02/18 12:19:44;;;;;;;26.73;24.83;;;;;;;;;;4972677;28;20501;-76
2024/02/18 12:22:11;;;;;;;26.97;25.07;;;;;;;;;;4972234;28;20455;-76
2024/02/18 12:24:39;;;;;;;25.73;23.80;;;;;;;;;;4972027;28;20442;-76
2024/02/18 12:27:06;;;;;;;25.07;23.53;;;;;;;;;;4971733;28;20452;-75
2024/02/18 12:29:33;;;;;;;25.50;24.00;;;;;;;;;;4972001;28;20466;-77
2024/02/18 12:32:02;;;;;;;25.73;23.83;;;;;;;;;;4971686;28;20959;-76
2024/02/18 12:34:29;;;;;;;27.50;25.70;;;;;;;;;;4971649;28;20468;-76
2024/02/18 12:36:56;;;;;;;27.37;25.67;;;;;;;;;;4971399;28;20479;-76
2024/02/18 12:39:24;;;;;;;26.60;24.80;;;;;;;;;;4971699;28;21177;-75
2024/02/18 12:41:51;;;;;;;25.93;24.40;;;;;;;;;;4971633;28;20731;-75
2024/02/18 12:44:17;;;;;;;25.60;23.73;;;;;;;;;;4971732;28;20501;-75
2024/02/18 12:46:44;;;;;;;25.10;23.70;;;;;;;;;;4970835;28;20520;-75
2024/02/18 12:49:13;;;;;;;24.10;22.60;;;;;;;;;;4971458;28;20532;-75
2024/02/18 12:51:42;;;;;;;24.87;23.40;;;;;;;;;;4971466;28;20505;-74
2024/02/18 12:54:13;;;;;;;26.37;24.73;;;;;;;;;;4970822;28;20874;-75
2024/02/18 12:56:40;;;;;;;24.60;23.00;;;;;;;;;;4970460;28;20446;-76
2024/02/18 12:59:07;;;;;;;26.00;24.10;;;;;;;;;;4970866;28;20478;-75
2024/02/18 13:01:34;;;;;;;25.30;23.40;;;;;;;;;;4971137;28;20486;-76
2024/02/18 13:04:02;;;;;;;24.70;23.10;;;;;;;;;;4971162;28;20509;-76
2024/02/18 13:06:31;;;;;;;24.43;22.83;;;;;;;;;;4970500;28;20472;-77
2024/02/18 13:08:58;;;;;;;24.50;23.10;;;;;;;;;;4971427;28;20470;-75
2024/02/18 13:11:26;;;;;;;25.53;24.13;;;;;;;;;;4971158;28;20450;-76
2024/02/18 13:13:55;;;;;;;27.57;25.87;;;;;;;;;;4971232;28;20528;-76
2024/02/18 13:16:22;;;;;;;28.47;26.30;;;;;;;;;;4969991;28;20493;-76
2024/02/18 13:18:49;;;;;;;27.13;25.47;;;;;;;;;;4982115;28;20989;-76
2024/02/18 13:21:16;;;;;;;26.23;24.03;;;;;;;;;;4990232;28;20476;-76
2024/02/18 13:23:44;;;;;;;26.83;25.13;;;;;;;;;;4990380;28;20484;-76
2024/02/18 13:26:12;;;;;;;27.60;26.00;;;;;;;;;;4989789;28;20868;-76
2024/02/18 13:28:39;;;;;;;25.53;24.23;;;;;;;;;;4990097;28;20837;-75
2024/02/18 13:31:08;;;;;;;26.63;25.10;;;;;;;;;;4990300;28;20453;-76
2024/02/18 13:33:35;;;;;;;24.87;23.67;;;;;;;;;;4990191;28;20943;-76
2024/02/18 13:36:02;;;;;;;27.17;25.63;;;;;;;;;;4989883;28;20493;-76
2024/02/18 13:38:29;;;;;;;26.90;25.33;;;;;;;;;;4990201;28;20492;-76
2024/02/18 13:40:58;;;;;;;25.20;23.77;;;;;;;;;;4990160;28;20464;-76
2024/02/18 13:43:25;;;;;;;26.37;24.73;;;;;;;;;;4989801;28;20481;-76
2024/02/18 13:45:52;;;;;;;24.80;23.47;;;;;;;;;;4989999;28;20449;-76
2024/02/18 13:48:19;;;;;;;24.20;22.70;;;;;;;;;;4989544;28;20465;-76
2024/02/18 13:50:46;;;;;;;26.30;24.80;;;;;;;;;;4986487;28;20513;-76
2024/02/18 13:53:13;;;;;;;28.43;26.83;;;;;;;;;;4970502;28;20493;-76
2024/02/18 13:55:40;;;;;;;29.77;27.90;;;;;;;;;;4970521;28;20895;-76
2024/02/18 13:58:08;;;;;;;28.67;26.00;;;;;;;;;;4969287;28;21128;-76
2024/02/18 14:00:35;;;;;;;30.10;27.90;;;;;;;;;;4970539;28;21219;-77
2024/02/18 14:03:02;;;;;;;26.57;25.07;;;;;;;;;;4971086;28;20462;-76
2024/02/18 14:05:29;;;;;;;27.27;25.10;;;;;;;;;;4983020;28;20484;-77
2024/02/18 14:07:56;;;;;;;25.50;23.80;;;;;;;;;;4980787;28;20518;-76
2024/02/18 14:10:26;;;;;;;27.07;25.67;;;;;;;;;;4973910;28;20453;-76
2024/02/18 14:12:53;;;;;;;25.17;23.87;;;;;;;;;;4984153;28;20561;-75
2024/02/18 14:15:22;;;;;;;25.57;23.90;;;;;;;;;;4973943;28;20544;-76
2024/02/18 14:17:55;;;;;;;25.67;23.80;;;;;;;;;;4973461;28;20533;-75
2024/02/18 14:20:22;;;;;;;27.23;25.37;;;;;;;;;;4974193;28;20435;-75